Aviation Digital Data Service (ADDS)

Output produced by METARs form (0656 UTC 20 March 2019)
found at http://www.aviationweather.gov/metar/data/
 
Forecast for: DRZR (ZINDER , NE)
Text: TAF DRZR 200500Z 2006/2106 14006KT 8000 NSC
Forecast period: 0600 UTC 20 March 2019 to 0600 UTC 21 March 2019
Forecast type: FROM: standard forecast or significant change
Winds: from the SE (140 degrees) at 7 MPH (6 knots; 3.1 m/s)
Visibility: 5 miles (8 km)
Ceiling: unknown
Clouds: missing
Weather: no significant weather forecast for this period